createdAt,value
2018-05-18T00:02:03.523Z,7.10
2018-05-18T00:07:04.995Z,8.30
2018-05-18T00:12:06.456Z,8.87
2018-05-18T00:17:07.944Z,6.80
2018-05-18T00:22:09.465Z,8.00
2018-05-18T00:27:10.972Z,8.60
2018-05-18T00:32:19.442Z,9.40
2018-05-18T00:37:20.928Z,9.20
2018-05-18T00:42:22.361Z,8.33
2018-05-18T00:47:23.861Z,7.17
2018-05-18T00:52:26.115Z,9.17
2018-05-18T00:57:27.580Z,8.40
2018-05-18T01:02:29.081Z,9.43
2018-05-18T01:07:30.613Z,9.13
2018-05-18T01:12:32.114Z,8.83
2018-05-18T01:17:33.558Z,10.43
2018-05-18T01:22:35.099Z,9.10
2018-05-18T01:27:36.623Z,9.87
2018-05-18T01:32:38.922Z,9.67
2018-05-18T01:37:41.185Z,8.83
2018-05-18T01:42:42.694Z,10.83
2018-05-18T01:47:44.289Z,10.00
2018-05-18T01:52:45.815Z,9.70
2018-05-18T01:57:47.369Z,11.20
2018-05-18T02:02:49.688Z,12.10
2018-05-18T02:07:51.169Z,11.07
2018-05-18T02:12:52.714Z,11.67
2018-05-18T02:17:54.207Z,13.03
2018-05-18T02:22:56.393Z,13.10
2018-05-18T02:27:57.851Z,13.10
2018-05-18T02:32:59.392Z,13.30
2018-05-18T02:38:00.866Z,13.90
2018-05-18T02:43:02.329Z,12.70
2018-05-18T02:48:03.976Z,14.70
2018-05-18T02:53:06.255Z,13.77
2018-05-18T02:58:08.504Z,14.63
2018-05-18T03:03:10.076Z,14.83
2018-05-18T03:08:11.516Z,16.43
2018-05-18T03:13:13.037Z,15.20
2018-05-18T03:18:15.292Z,14.77
2018-05-18T03:23:16.804Z,14.00
2018-05-18T03:28:19.050Z,14.80
2018-05-18T03:33:20.572Z,15.97
2018-05-18T03:38:22.136Z,15.47
2018-05-18T03:43:23.689Z,17.40
2018-05-18T03:48:25.981Z,16.97
2018-05-18T03:53:27.501Z,16.23
2018-05-18T03:58:29.016Z,18.10
2018-05-18T04:03:49.759Z,17.80
2018-05-18T04:08:53.292Z,16.27
2018-05-18T04:13:54.773Z,18.40
2018-05-18T04:18:56.568Z,18.37
2018-05-18T04:23:58.887Z,19.63
2018-05-18T04:29:07.535Z,19.30
2018-05-18T04:34:09.111Z,20.27
2018-05-18T04:39:10.620Z,17.70
2018-05-18T04:44:12.143Z,18.20
2018-05-18T04:49:13.688Z,19.80
2018-05-18T04:54:15.178Z,20.37
2018-05-18T04:59:16.719Z,21.27
2018-05-18T05:04:18.252Z,19.13
2018-05-18T05:09:20.044Z,20.20
2018-05-18T05:14:22.280Z,22.83
2018-05-18T05:19:23.828Z,23.37
2018-05-18T05:24:25.373Z,20.93
2018-05-18T05:29:26.828Z,20.70
2018-05-18T05:34:29.103Z,22.70
2018-05-18T05:39:30.703Z,21.87
2018-05-18T05:44:32.166Z,19.80
2018-05-18T05:49:33.702Z,21.50
2018-05-18T05:54:35.154Z,20.90
2018-05-18T05:59:36.701Z,20.60
2018-05-18T06:04:38.270Z,20.57
2018-05-18T06:09:40.015Z,20.60
2018-05-18T06:14:41.511Z,20.00
2018-05-18T06:19:43.041Z,20.23
2018-05-18T06:24:45.247Z,21.07
2018-05-18T06:29:46.877Z,18.50
2018-05-18T06:34:49.202Z,20.53
2018-05-18T06:39:50.651Z,18.50
2018-05-18T06:44:52.388Z,20.20
2018-05-18T06:49:53.925Z,20.27
2018-05-18T06:54:55.460Z,19.17
2018-05-18T06:59:56.985Z,19.33
2018-05-18T07:04:58.517Z,21.80
2018-05-18T07:10:00.119Z,20.57
2018-05-18T07:15:01.671Z,19.37
2018-05-18T07:20:03.198Z,20.57
2018-05-18T07:25:04.730Z,18.30
2018-05-18T07:30:06.293Z,16.60
2018-05-18T07:35:07.763Z,18.00
2018-05-18T07:40:09.328Z,19.90
2018-05-18T07:45:10.853Z,17.50
2018-05-18T07:50:12.445Z,20.70
2018-05-18T07:55:14.581Z,16.43
2018-05-18T08:00:17.062Z,17.43
2018-05-18T08:05:19.315Z,16.93
2018-05-18T08:10:20.854Z,19.33
2018-05-18T08:15:22.411Z,17.60
2018-05-18T08:20:23.920Z,17.27
2018-05-18T08:25:25.472Z,17.80
2018-05-18T08:30:27.036Z,15.17
2018-05-18T08:35:28.564Z,16.67
2018-05-18T08:40:30.102Z,17.50
2018-05-18T08:45:31.665Z,18.20
2018-05-18T08:50:33.195Z,16.37
2018-05-18T08:55:34.759Z,16.33
2018-05-18T09:00:36.335Z,18.27
2018-05-18T09:05:38.639Z,19.23
2018-05-18T09:10:40.172Z,17.57
2018-05-18T09:15:41.723Z,17.70
2018-05-18T09:20:43.262Z,17.50
2018-05-18T09:25:44.791Z,20.50
2018-05-18T09:30:46.332Z,20.10
2018-05-18T09:35:47.863Z,18.70
2018-05-18T09:40:49.372Z,19.60
2018-05-18T09:45:50.910Z,18.47
2018-05-18T09:50:52.436Z,20.70
2018-05-18T09:55:53.972Z,20.70
2018-05-18T10:00:55.474Z,19.57
2018-05-18T10:05:57.063Z,21.43
2018-05-18T10:10:58.587Z,19.20
2018-05-18T10:16:00.112Z,21.00
2018-05-18T10:21:02.361Z,17.27
2018-05-18T10:26:03.965Z,20.10
2018-05-18T10:31:05.456Z,18.20
2018-05-18T10:36:07.011Z,19.57
2018-05-18T10:41:09.372Z,17.93
2018-05-18T10:46:10.876Z,20.00
2018-05-18T10:51:13.144Z,17.23
2018-05-18T10:56:15.379Z,19.20
2018-05-18T11:01:17.008Z,19.67
2018-05-18T11:06:19.325Z,18.87
2018-05-18T11:11:20.844Z,18.40
2018-05-18T11:16:22.486Z,17.97
2018-05-18T11:21:24.044Z,18.87
2018-05-18T11:26:25.610Z,19.27
2018-05-18T11:31:27.826Z,18.50
2018-05-18T11:36:29.386Z,17.77
2018-05-18T11:41:30.884Z,17.60
2018-05-18T11:46:33.143Z,17.87
2018-05-18T11:51:34.710Z,16.90
2018-05-18T11:56:36.248Z,16.83
2018-05-18T12:01:37.699Z,18.27
2018-05-18T12:06:39.284Z,18.43
2018-05-18T12:11:40.843Z,17.00
2018-05-18T12:16:42.390Z,18.50
2018-05-18T12:21:43.932Z,18.97
2018-05-18T12:26:46.208Z,18.10
2018-05-18T12:31:47.730Z,18.70
2018-05-18T12:36:49.275Z,20.07
2018-05-18T12:41:51.525Z,21.27
2018-05-18T12:46:53.009Z,17.93
2018-05-18T12:51:55.381Z,19.70
2018-05-18T12:56:56.905Z,18.90
2018-05-18T13:01:58.490Z,20.03
2018-05-18T13:07:00.068Z,20.13
2018-05-18T13:12:01.649Z,22.37
2018-05-18T13:17:03.209Z,22.10
2018-05-18T13:22:04.925Z,24.17
2018-05-18T13:27:07.212Z,27.57
2018-05-18T13:32:08.741Z,26.47
2018-05-18T13:37:10.277Z,26.50
2018-05-18T13:42:11.849Z,24.03
2018-05-18T13:47:13.392Z,23.77
2018-05-18T13:52:14.943Z,27.70
2018-05-18T13:57:17.297Z,24.27
2018-05-18T14:02:18.679Z,23.40
2018-05-18T14:07:20.179Z,21.77
2018-05-18T14:12:21.642Z,24.60
2018-05-18T14:17:23.169Z,21.90
2018-05-18T14:22:24.733Z,20.80
2018-05-18T14:27:26.299Z,17.13
2018-05-18T14:32:27.980Z,18.90
2018-05-18T14:37:29.479Z,18.00
2018-05-18T14:42:30.989Z,18.90
2018-05-18T14:47:32.545Z,18.00
2018-05-18T14:52:34.075Z,18.93
2018-05-18T14:57:36.324Z,18.13
2018-05-18T15:02:37.835Z,16.70
2018-05-18T15:07:39.278Z,17.23
2018-05-18T15:12:40.724Z,16.60
2018-05-18T15:17:42.186Z,16.73
2018-05-18T15:22:43.615Z,16.30
2018-05-18T15:27:45.100Z,15.93
2018-05-18T15:32:46.577Z,17.00
2018-05-18T15:37:48.089Z,15.03
2018-05-18T15:42:50.422Z,15.17
2018-05-18T15:47:51.935Z,14.80
2018-05-18T15:52:54.327Z,14.77
2018-05-18T15:57:56.604Z,17.37
2018-05-18T16:02:58.908Z,15.63
2018-05-18T16:08:00.450Z,15.63
2018-05-18T16:13:02.087Z,16.00
2018-05-18T16:18:10.653Z,16.43
2018-05-18T16:23:12.183Z,14.53
2018-05-18T16:28:13.757Z,15.53
2018-05-18T16:33:15.286Z,16.40
2018-05-18T16:38:16.872Z,15.87
2018-05-18T16:43:18.427Z,14.83
2018-05-18T16:48:19.966Z,16.40
2018-05-18T16:53:22.517Z,16.80
2018-05-18T16:58:24.043Z,15.50
2018-05-18T17:03:25.588Z,14.07
2018-05-18T17:08:27.160Z,14.00
2018-05-18T17:13:29.430Z,13.73
2018-05-18T17:18:30.984Z,14.40
2018-05-18T17:23:32.618Z,14.23
2018-05-18T17:28:34.144Z,14.77
2018-05-18T17:33:35.699Z,14.20
2018-05-18T17:38:37.293Z,14.03
2018-05-18T17:43:46.501Z,15.37
2018-05-18T17:48:48.021Z,14.30
2018-05-18T17:53:49.573Z,14.23
2018-05-18T17:58:51.904Z,15.37
2018-05-18T18:03:53.459Z,15.67
2018-05-18T18:08:55.020Z,14.97
2018-05-18T18:13:56.603Z,14.53
2018-05-18T18:18:58.099Z,14.57
2018-05-18T18:23:59.671Z,14.20
2018-05-18T18:29:02.026Z,15.87
2018-05-18T18:34:03.806Z,15.47
2018-05-18T18:39:05.337Z,16.23
2018-05-18T18:44:07.610Z,17.27
2018-05-18T18:49:09.896Z,15.63
2018-05-18T18:54:12.272Z,16.20
2018-05-18T18:59:13.791Z,17.73
2018-05-18T19:04:15.373Z,16.73
2018-05-18T19:09:17.167Z,15.40
2018-05-18T19:14:18.764Z,14.67
2018-05-18T19:19:20.320Z,15.30
2018-05-18T19:24:21.926Z,19.20
2018-05-18T19:29:23.399Z,19.00
2018-05-18T19:34:24.927Z,16.30
2018-05-18T19:39:26.524Z,18.40
2018-05-18T19:44:28.287Z,17.10
2018-05-18T19:49:29.766Z,18.87
2018-05-18T19:54:31.362Z,16.33
2018-05-18T19:59:32.949Z,15.43
2018-05-18T20:04:34.494Z,18.23
2018-05-18T20:09:36.420Z,16.83
2018-05-18T20:14:38.017Z,16.97
2018-05-18T20:19:39.804Z,18.50
2018-05-18T20:24:41.387Z,17.00
2018-05-18T20:29:43.351Z,19.00
2018-05-18T20:34:45.278Z,16.57
2018-05-18T20:39:46.865Z,16.43
2018-05-18T20:44:48.560Z,16.27
2018-05-18T20:49:50.340Z,15.73
2018-05-18T20:54:52.000Z,16.70
2018-05-18T20:59:54.077Z,17.67
2018-05-18T21:04:55.764Z,16.47
2018-05-18T21:09:57.508Z,17.50
2018-05-18T21:14:59.261Z,16.10
2018-05-18T21:20:01.671Z,16.37
2018-05-18T21:25:04.218Z,17.13
2018-05-18T21:30:05.843Z,15.83
2018-05-18T21:35:08.277Z,15.27
2018-05-18T21:40:09.932Z,16.93
2018-05-18T21:45:11.521Z,16.37
2018-05-18T21:50:13.167Z,16.87
2018-05-18T21:55:15.035Z,16.50
2018-05-18T22:00:16.769Z,17.00
2018-05-18T22:05:19.032Z,15.33
2018-05-18T22:10:20.679Z,15.90
2018-05-18T22:15:22.172Z,16.70
2018-05-18T22:20:23.693Z,17.30
2018-05-18T22:25:25.211Z,16.00
2018-05-18T22:30:26.701Z,16.57
2018-05-18T22:35:29.084Z,16.57
2018-05-18T22:40:31.391Z,16.80
2018-05-18T22:45:33.161Z,16.77
2018-05-18T22:50:34.648Z,16.33
2018-05-18T22:55:36.185Z,14.70
2018-05-18T23:00:38.598Z,16.30
2018-05-18T23:05:40.127Z,16.90
2018-05-18T23:10:42.510Z,14.90
2018-05-18T23:15:45.131Z,18.63
2018-05-18T23:20:46.741Z,18.50
2018-05-18T23:25:52.504Z,18.23
2018-05-18T23:30:54.065Z,15.03
2018-05-18T23:35:56.627Z,15.97
2018-05-18T23:40:58.445Z,16.43
2018-05-18T23:45:59.962Z,17.00
2018-05-18T23:51:01.484Z,15.37
2018-05-18T23:56:03.062Z,15.93
